sensor_id;sensor_type;location;lat;lon;timestamp;pressure;altitude;pressure_sealevel;temperature
72675;BMP280;60752;53.962;9.614;2022-12-07T00:03:22;101083.66;;;2.43
72675;BMP280;60752;53.962;9.614;2022-12-07T00:08:22;101085.81;;;2.46
72675;BMP280;60752;53.962;9.614;2022-12-07T00:13:22;101083.44;;;2.44
72675;BMP280;60752;53.962;9.614;2022-12-07T00:18:24;101085.03;;;2.45
72675;BMP280;60752;53.962;9.614;2022-12-07T00:23:24;101085.44;;;2.42
72675;BMP280;60752;53.962;9.614;2022-12-07T00:28:25;101078.06;;;2.39
72675;BMP280;60752;53.962;9.614;2022-12-07T00:33:27;101078.88;;;2.40
72675;BMP280;60752;53.962;9.614;2022-12-07T00:38:28;101077.09;;;2.40
72675;BMP280;60752;53.962;9.614;2022-12-07T00:43:29;101069.34;;;2.40
72675;BMP280;60752;53.962;9.614;2022-12-07T00:48:31;101059.22;;;2.39
72675;BMP280;60752;53.962;9.614;2022-12-07T00:53:34;101057.84;;;2.36
72675;BMP280;60752;53.962;9.614;2022-12-07T00:58:34;101049.28;;;2.36
72675;BMP280;60752;53.962;9.614;2022-12-07T01:03:37;101048.47;;;2.35
72675;BMP280;60752;53.962;9.614;2022-12-07T01:08:37;101047.69;;;2.35
72675;BMP280;60752;53.962;9.614;2022-12-07T01:13:38;101046.53;;;2.31
72675;BMP280;60752;53.962;9.614;2022-12-07T01:18:40;101046.13;;;2.27
72675;BMP280;60752;53.962;9.614;2022-12-07T01:23:41;101054.28;;;2.24
72675;BMP280;60752;53.962;9.614;2022-12-07T01:28:41;101051.91;;;2.09
72675;BMP280;60752;53.962;9.614;2022-12-07T01:33:46;101057.28;;;2.08
72675;BMP280;60752;53.962;9.614;2022-12-07T01:38:48;101057.06;;;2.09
72675;BMP280;60752;53.962;9.614;2022-12-07T01:44:14;101059.22;;;2.12
72675;BMP280;60752;53.962;9.614;2022-12-07T01:49:21;101052.50;;;2.11
72675;BMP280;60752;53.962;9.614;2022-12-07T01:54:24;101055.28;;;2.10
72675;BMP280;60752;53.962;9.614;2022-12-07T01:59:25;101062.44;;;2.08
72675;BMP280;60752;53.962;9.614;2022-12-07T02:04:28;101049.91;;;2.05
72675;BMP280;60752;53.962;9.614;2022-12-07T02:09:29;101052.91;;;2.02
72675;BMP280;60752;53.962;9.614;2022-12-07T02:14:29;101057.66;;;1.98
72675;BMP280;60752;53.962;9.614;2022-12-07T02:19:58;101054.50;;;1.96
72675;BMP280;60752;53.962;9.614;2022-12-07T02:25:07;101053.91;;;1.94
72675;BMP280;60752;53.962;9.614;2022-12-07T02:30:10;101046.56;;;1.91
72675;BMP280;60752;53.962;9.614;2022-12-07T02:35:17;101045.16;;;1.88
72675;BMP280;60752;53.962;9.614;2022-12-07T02:40:22;101050.53;;;1.87
72675;BMP280;60752;53.962;9.614;2022-12-07T02:45:26;101059.47;;;1.84
72675;BMP280;60752;53.962;9.614;2022-12-07T02:50:27;101054.47;;;1.83
72675;BMP280;60752;53.962;9.614;2022-12-07T02:55:35;101051.69;;;1.78
72675;BMP280;60752;53.962;9.614;2022-12-07T03:00:48;101052.09;;;1.75
72675;BMP280;60752;53.962;9.614;2022-12-07T03:06:13;101054.88;;;1.73
72675;BMP280;60752;53.962;9.614;2022-12-07T03:11:21;101065.16;;;1.66
72675;BMP280;60752;53.962;9.614;2022-12-07T03:16:27;101066.38;;;1.64
72675;BMP280;60752;53.962;9.614;2022-12-07T03:21:32;101062.44;;;1.61
72675;BMP280;60752;53.962;9.614;2022-12-07T03:26:36;101053.47;;;1.57
72675;BMP280;60752;53.962;9.614;2022-12-07T03:31:41;101050.88;;;1.51
72675;BMP280;60752;53.962;9.614;2022-12-07T03:36:46;101054.03;;;1.46
72675;BMP280;60752;53.962;9.614;2022-12-07T03:41:48;101060.19;;;1.45
72675;BMP280;60752;53.962;9.614;2022-12-07T03:46:53;101055.03;;;1.38
72675;BMP280;60752;53.962;9.614;2022-12-07T03:52:05;101051.66;;;1.38
72675;BMP280;60752;53.962;9.614;2022-12-07T03:57:10;101054.97;;;1.32
72675;BMP280;60752;53.962;9.614;2022-12-07T04:02:13;101056.41;;;1.28
72675;BMP280;60752;53.962;9.614;2022-12-07T04:07:23;101059.34;;;1.25
72675;BMP280;60752;53.962;9.614;2022-12-07T04:12:24;101061.75;;;1.26
72675;BMP280;60752;53.962;9.614;2022-12-07T04:17:25;101067.28;;;1.23
72675;BMP280;60752;53.962;9.614;2022-12-07T04:22:26;101057.34;;;1.20
72675;BMP280;60752;53.962;9.614;2022-12-07T04:27:26;101060.31;;;1.17
72675;BMP280;60752;53.962;9.614;2022-12-07T04:32:28;101045.22;;;1.14
72675;BMP280;60752;53.962;9.614;2022-12-07T04:37:29;101042.25;;;1.10
72675;BMP280;60752;53.962;9.614;2022-12-07T04:42:29;101047.78;;;1.07
72675;BMP280;60752;53.962;9.614;2022-12-07T04:47:31;101057.09;;;1.08
72675;BMP280;60752;53.962;9.614;2022-12-07T04:52:31;101046.00;;;1.08
72675;BMP280;60752;53.962;9.614;2022-12-07T04:57:31;101038.66;;;1.05
72675;BMP280;60752;53.962;9.614;2022-12-07T05:02:33;101050.56;;;1.06
72675;BMP280;60752;53.962;9.614;2022-12-07T05:07:33;101035.69;;;1.08
72675;BMP280;60752;53.962;9.614;2022-12-07T05:12:34;101033.09;;;1.08
72675;BMP280;60752;53.962;9.614;2022-12-07T05:17:36;101030.94;;;1.05
72675;BMP280;60752;53.962;9.614;2022-12-07T05:22:36;101022.41;;;1.04
72675;BMP280;60752;53.962;9.614;2022-12-07T05:27:36;101017.63;;;1.01
72675;BMP280;60752;53.962;9.614;2022-12-07T05:32:38;101019.03;;;0.97
72675;BMP280;60752;53.962;9.614;2022-12-07T05:37:38;101024.34;;;0.96
72675;BMP280;60752;53.962;9.614;2022-12-07T05:42:39;101021.19;;;1.00
72675;BMP280;60752;53.962;9.614;2022-12-07T05:47:41;101014.47;;;0.99
72675;BMP280;60752;53.962;9.614;2022-12-07T05:52:41;101029.13;;;0.99
72675;BMP280;60752;53.962;9.614;2022-12-07T05:57:41;101021.00;;;1.02
72675;BMP280;60752;53.962;9.614;2022-12-07T06:02:43;101018.06;;;1.05
72675;BMP280;60752;53.962;9.614;2022-12-07T06:07:43;101005.53;;;1.02
72675;BMP280;60752;53.962;9.614;2022-12-07T06:12:44;101002.19;;;1.01
72675;BMP280;60752;53.962;9.614;2022-12-07T06:17:47;101003.97;;;1.01
72675;BMP280;60752;53.962;9.614;2022-12-07T06:22:47;101010.47;;;0.97
72675;BMP280;60752;53.962;9.614;2022-12-07T06:27:48;101010.06;;;0.93
72675;BMP280;60752;53.962;9.614;2022-12-07T06:32:49;101006.72;;;0.86
72675;BMP280;60752;53.962;9.614;2022-12-07T06:37:50;101015.00;;;0.88
72675;BMP280;60752;53.962;9.614;2022-12-07T06:42:50;101011.25;;;0.90
72675;BMP280;60752;53.962;9.614;2022-12-07T06:47:52;101019.19;;;0.96
72675;BMP280;60752;53.962;9.614;2022-12-07T06:52:52;101025.94;;;0.97
72675;BMP280;60752;53.962;9.614;2022-12-07T06:57:53;101020.59;;;0.98
72675;BMP280;60752;53.962;9.614;2022-12-07T07:02:55;101022.78;;;1.01
72675;BMP280;60752;53.962;9.614;2022-12-07T07:07:55;101017.25;;;1.04
72675;BMP280;60752;53.962;9.614;2022-12-07T07:12:56;101024.78;;;1.06
72675;BMP280;60752;53.962;9.614;2022-12-07T07:17:57;101026.78;;;1.04
72675;BMP280;60752;53.962;9.614;2022-12-07T07:22:58;101024.22;;;1.10
72675;BMP280;60752;53.962;9.614;2022-12-07T07:27:58;101024.03;;;1.12
72675;BMP280;60752;53.962;9.614;2022-12-07T07:33:02;101031.97;;;1.17
72675;BMP280;60752;53.962;9.614;2022-12-07T07:38:03;101034.34;;;1.19
72675;BMP280;60752;53.962;9.614;2022-12-07T07:43:03;101037.53;;;1.21
72675;BMP280;60752;53.962;9.614;2022-12-07T07:48:05;101030.59;;;1.21
72675;BMP280;60752;53.962;9.614;2022-12-07T07:53:06;101040.72;;;1.23
72675;BMP280;60752;53.962;9.614;2022-12-07T07:58:06;101038.94;;;1.23
72675;BMP280;60752;53.962;9.614;2022-12-07T08:03:08;101044.09;;;1.23
72675;BMP280;60752;53.962;9.614;2022-12-07T08:08:08;101043.72;;;1.26
72675;BMP280;60752;53.962;9.614;2022-12-07T08:13:08;101040.50;;;1.31
72675;BMP280;60752;53.962;9.614;2022-12-07T08:18:11;101036.13;;;1.31
72675;BMP280;60752;53.962;9.614;2022-12-07T08:23:11;101044.50;;;1.33
72675;BMP280;60752;53.962;9.614;2022-12-07T08:28:12;101038.75;;;1.38
72675;BMP280;60752;53.962;9.614;2022-12-07T08:33:13;101041.13;;;1.39
72675;BMP280;60752;53.962;9.614;2022-12-07T08:38:14;101055.63;;;1.40
72675;BMP280;60752;53.962;9.614;2022-12-07T08:43:14;101045.88;;;1.42
72675;BMP280;60752;53.962;9.614;2022-12-07T08:48:16;101039.56;;;1.45
72675;BMP280;60752;53.962;9.614;2022-12-07T08:53:16;101038.16;;;1.49
72675;BMP280;60752;53.962;9.614;2022-12-07T08:58:17;101047.53;;;1.50
72675;BMP280;60752;53.962;9.614;2022-12-07T09:03:19;101047.13;;;1.53
72675;BMP280;60752;53.962;9.614;2022-12-07T09:08:19;101052.88;;;1.55
72675;BMP280;60752;53.962;9.614;2022-12-07T09:13:20;101057.06;;;1.56
72675;BMP280;60752;53.962;9.614;2022-12-07T09:18:22;101045.34;;;1.60
72675;BMP280;60752;53.962;9.614;2022-12-07T09:23:23;101051.69;;;1.64
72675;BMP280;60752;53.962;9.614;2022-12-07T09:28:23;101050.50;;;1.67
72675;BMP280;60752;53.962;9.614;2022-12-07T09:33:25;101050.88;;;1.70
72675;BMP280;60752;53.962;9.614;2022-12-07T09:38:25;101046.94;;;1.75
72675;BMP280;60752;53.962;9.614;2022-12-07T09:43:26;101050.53;;;1.80
72675;BMP280;60752;53.962;9.614;2022-12-07T09:48:30;101052.53;;;1.85
72675;BMP280;60752;53.962;9.614;2022-12-07T09:53:34;101053.53;;;1.90
72675;BMP280;60752;53.962;9.614;2022-12-07T09:58:36;101054.91;;;1.93
72675;BMP280;60752;53.962;9.614;2022-12-07T10:03:39;101052.69;;;1.96
72675;BMP280;60752;53.962;9.614;2022-12-07T10:08:40;101054.66;;;2.01
72675;BMP280;60752;53.962;9.614;2022-12-07T10:13:42;101048.13;;;2.05
72675;BMP280;60752;53.962;9.614;2022-12-07T10:18:44;101050.31;;;2.15
72675;BMP280;60752;53.962;9.614;2022-12-07T10:23:59;101047.94;;;2.20
72675;BMP280;60752;53.962;9.614;2022-12-07T10:29:03;101043.94;;;2.24
72675;BMP280;60752;53.962;9.614;2022-12-07T10:34:22;101044.31;;;2.27
72675;BMP280;60752;53.962;9.614;2022-12-07T10:39:23;101042.16;;;2.31
72675;BMP280;60752;53.962;9.614;2022-12-07T10:44:25;101045.09;;;2.35
72675;BMP280;60752;53.962;9.614;2022-12-07T10:50:07;101046.31;;;2.39
72675;BMP280;60752;53.962;9.614;2022-12-07T10:55:18;101036.75;;;2.46
72675;BMP280;60752;53.962;9.614;2022-12-07T11:00:23;101036.72;;;2.52
72675;BMP280;60752;53.962;9.614;2022-12-07T11:05:27;101025.00;;;2.57
72675;BMP280;60752;53.962;9.614;2022-12-07T11:10:37;101023.78;;;2.59
72675;BMP280;60752;53.962;9.614;2022-12-07T11:15:52;101022.19;;;2.65
72675;BMP280;60752;53.962;9.614;2022-12-07T11:21:06;101018.41;;;2.67
72675;BMP280;60752;53.962;9.614;2022-12-07T11:26:13;101005.50;;;2.67
72675;BMP280;60752;53.962;9.614;2022-12-07T11:31:18;101007.28;;;2.67
72675;BMP280;60752;53.962;9.614;2022-12-07T11:36:33;101005.09;;;2.70
72675;BMP280;60752;53.962;9.614;2022-12-07T11:41:38;101003.69;;;2.74
72675;BMP280;60752;53.962;9.614;2022-12-07T11:46:46;101007.22;;;2.80
72675;BMP280;60752;53.962;9.614;2022-12-07T11:51:52;101012.97;;;2.82
72675;BMP280;60752;53.962;9.614;2022-12-07T11:56:55;101008.63;;;2.82
72675;BMP280;60752;53.962;9.614;2022-12-07T12:02:03;101007.38;;;2.92
72675;BMP280;60752;53.962;9.614;2022-12-07T12:07:15;101005.53;;;2.99
72675;BMP280;60752;53.962;9.614;2022-12-07T12:12:31;101002.16;;;2.98
72675;BMP280;60752;53.962;9.614;2022-12-07T12:18:03;101000.34;;;2.99
72675;BMP280;60752;53.962;9.614;2022-12-07T12:23:10;100999.97;;;3.02
72675;BMP280;60752;53.962;9.614;2022-12-07T12:28:24;100995.16;;;3.05
72675;BMP280;60752;53.962;9.614;2022-12-07T12:33:28;101003.50;;;3.07
72675;BMP280;60752;53.962;9.614;2022-12-07T12:38:32;101000.72;;;3.09
72675;BMP280;60752;53.962;9.614;2022-12-07T12:43:52;101007.28;;;3.12
72675;BMP280;60752;53.962;9.614;2022-12-07T12:48:52;101002.28;;;3.10
72675;BMP280;60752;53.962;9.614;2022-12-07T12:54:03;101001.28;;;3.11
72675;BMP280;60752;53.962;9.614;2022-12-07T12:59:28;100996.53;;;3.08
72675;BMP280;60752;53.962;9.614;2022-12-07T13:04:54;100997.94;;;3.04
72675;BMP280;60752;53.962;9.614;2022-12-07T13:09:56;101004.94;;;2.97
72675;BMP280;60752;53.962;9.614;2022-12-07T13:14:57;101001.81;;;2.88
72675;BMP280;60752;53.962;9.614;2022-12-07T13:19:59;101004.03;;;2.85
72675;BMP280;60752;53.962;9.614;2022-12-07T13:25:05;100998.28;;;2.82
72675;BMP280;60752;53.962;9.614;2022-12-07T13:30:13;100988.91;;;2.81
72675;BMP280;60752;53.962;9.614;2022-12-07T13:35:28;100990.13;;;2.79
72675;BMP280;60752;53.962;9.614;2022-12-07T13:40:30;100994.34;;;2.73
72675;BMP280;60752;53.962;9.614;2022-12-07T13:45:32;100987.59;;;2.72
72675;BMP280;60752;53.962;9.614;2022-12-07T13:50:33;100985.41;;;2.69
72675;BMP280;60752;53.962;9.614;2022-12-07T13:55:35;100988.44;;;2.66
72675;BMP280;60752;53.962;9.614;2022-12-07T14:00:35;100982.66;;;2.64
72675;BMP280;60752;53.962;9.614;2022-12-07T14:05:36;100987.03;;;2.64
72675;BMP280;60752;53.962;9.614;2022-12-07T14:10:39;100984.66;;;2.62
72675;BMP280;60752;53.962;9.614;2022-12-07T14:15:41;100995.38;;;2.59
72675;BMP280;60752;53.962;9.614;2022-12-07T14:20:41;100990.41;;;2.58
72675;BMP280;60752;53.962;9.614;2022-12-07T14:25:47;100995.00;;;2.55
72675;BMP280;60752;53.962;9.614;2022-12-07T14:30:47;100989.66;;;2.50
72675;BMP280;60752;53.962;9.614;2022-12-07T14:35:48;100991.28;;;2.45
72675;BMP280;60752;53.962;9.614;2022-12-07T14:40:50;100989.91;;;2.36
72675;BMP280;60752;53.962;9.614;2022-12-07T14:45:51;100993.09;;;2.31
72675;BMP280;60752;53.962;9.614;2022-12-07T14:50:52;100993.31;;;2.23
72675;BMP280;60752;53.962;9.614;2022-12-07T14:55:54;100983.81;;;2.10
72675;BMP280;60752;53.962;9.614;2022-12-07T15:00:54;100984.22;;;2.00
72675;BMP280;60752;53.962;9.614;2022-12-07T15:05:55;100981.09;;;1.92
72675;BMP280;60752;53.962;9.614;2022-12-07T15:10:56;100971.34;;;1.87
72675;BMP280;60752;53.962;9.614;2022-12-07T15:15:57;100978.69;;;1.84
72675;BMP280;60752;53.962;9.614;2022-12-07T15:20:57;100965.00;;;1.77
72675;BMP280;60752;53.962;9.614;2022-12-07T15:25:59;100958.84;;;1.71
72675;BMP280;60752;53.962;9.614;2022-12-07T15:30:59;100962.22;;;1.65
72675;BMP280;60752;53.962;9.614;2022-12-07T15:36:00;100973.75;;;1.62
72675;BMP280;60752;53.962;9.614;2022-12-07T15:41:02;100968.41;;;1.57
72675;BMP280;60752;53.962;9.614;2022-12-07T15:46:02;100973.72;;;1.49
72675;BMP280;60752;53.962;9.614;2022-12-07T15:51:07;100969.75;;;1.47
72675;BMP280;60752;53.962;9.614;2022-12-07T15:56:09;100963.03;;;1.39
72675;BMP280;60752;53.962;9.614;2022-12-07T16:01:11;100956.06;;;1.33
72675;BMP280;60752;53.962;9.614;2022-12-07T16:06:12;100964.63;;;1.27
72675;BMP280;60752;53.962;9.614;2022-12-07T16:11:16;100954.09;;;1.22
72675;BMP280;60752;53.962;9.614;2022-12-07T16:16:18;100955.66;;;1.16
72675;BMP280;60752;53.962;9.614;2022-12-07T16:21:19;100957.63;;;1.14
72675;BMP280;60752;53.962;9.614;2022-12-07T16:26:21;100958.03;;;1.11
72675;BMP280;60752;53.962;9.614;2022-12-07T16:31:24;100955.44;;;1.04
72675;BMP280;60752;53.962;9.614;2022-12-07T16:36:29;100964.72;;;0.99
72675;BMP280;60752;53.962;9.614;2022-12-07T16:41:31;100958.97;;;0.97
72675;BMP280;60752;53.962;9.614;2022-12-07T16:46:32;100958.56;;;0.93
72675;BMP280;60752;53.962;9.614;2022-12-07T16:51:34;100953.22;;;0.95
72675;BMP280;60752;53.962;9.614;2022-12-07T16:56:36;100966.50;;;0.92
72675;BMP280;60752;53.962;9.614;2022-12-07T17:01:37;100966.50;;;0.92
72675;BMP280;60752;53.962;9.614;2022-12-07T17:06:37;100952.63;;;0.93
72675;BMP280;60752;53.962;9.614;2022-12-07T17:11:39;100951.66;;;0.87
72675;BMP280;60752;53.962;9.614;2022-12-07T17:16:43;100951.81;;;0.85
72675;BMP280;60752;53.962;9.614;2022-12-07T17:21:44;100951.81;;;0.85
72675;BMP280;60752;53.962;9.614;2022-12-07T17:26:47;100948.28;;;0.86
72675;BMP280;60752;53.962;9.614;2022-12-07T17:31:48;100943.13;;;0.86
72675;BMP280;60752;53.962;9.614;2022-12-07T17:36:48;100943.50;;;0.90
72675;BMP280;60752;53.962;9.614;2022-12-07T17:41:50;100934.00;;;0.84
72675;BMP280;60752;53.962;9.614;2022-12-07T17:46:52;100927.06;;;0.84
72675;BMP280;60752;53.962;9.614;2022-12-07T17:51:53;100920.53;;;0.82
72675;BMP280;60752;53.962;9.614;2022-12-07T17:56:54;100908.44;;;0.82
72675;BMP280;60752;53.962;9.614;2022-12-07T18:01:55;100901.50;;;0.83
72675;BMP280;60752;53.962;9.614;2022-12-07T18:06:55;100900.69;;;0.89
72675;BMP280;60752;53.962;9.614;2022-12-07T18:11:57;100893.97;;;0.88
72675;BMP280;60752;53.962;9.614;2022-12-07T18:16:57;100899.13;;;0.81
72675;BMP280;60752;53.962;9.614;2022-12-07T18:21:58;100885.81;;;0.71
72675;BMP280;60752;53.962;9.614;2022-12-07T18:27:00;100888.81;;;0.68
72675;BMP280;60752;53.962;9.614;2022-12-07T18:32:00;100884.84;;;0.72
72675;BMP280;60752;53.962;9.614;2022-12-07T18:37:00;100879.88;;;0.71
72675;BMP280;60752;53.962;9.614;2022-12-07T18:42:02;100877.91;;;0.73
72675;BMP280;60752;53.962;9.614;2022-12-07T18:47:03;100875.53;;;0.71
72675;BMP280;60752;53.962;9.614;2022-12-07T18:52:03;100873.34;;;0.68
72675;BMP280;60752;53.962;9.614;2022-12-07T18:57:05;100870.78;;;0.68
72675;BMP280;60752;53.962;9.614;2022-12-07T19:02:06;100875.31;;;0.73
72675;BMP280;60752;53.962;9.614;2022-12-07T19:07:06;100883.84;;;0.73
72675;BMP280;60752;53.962;9.614;2022-12-07T19:12:10;100881.66;;;0.70
72675;BMP280;60752;53.962;9.614;2022-12-07T19:17:12;100879.09;;;0.70
72675;BMP280;60752;53.962;9.614;2022-12-07T19:22:14;100866.00;;;0.65
72675;BMP280;60752;53.962;9.614;2022-12-07T19:27:17;100862.84;;;0.63
72675;BMP280;60752;53.962;9.614;2022-12-07T19:32:18;100860.06;;;0.65
72675;BMP280;60752;53.962;9.614;2022-12-07T19:37:18;100860.84;;;0.65
72675;BMP280;60752;53.962;9.614;2022-12-07T19:42:20;100860.06;;;0.65
72675;BMP280;60752;53.962;9.614;2022-12-07T19:47:23;100852.13;;;0.59
72675;BMP280;60752;53.962;9.614;2022-12-07T19:52:24;100846.00;;;0.60
72675;BMP280;60752;53.962;9.614;2022-12-07T19:57:25;100833.13;;;0.60
72675;BMP280;60752;53.962;9.614;2022-12-07T20:02:26;100829.56;;;0.61
72675;BMP280;60752;53.962;9.614;2022-12-07T20:07:26;100821.66;;;0.63
72675;BMP280;60752;53.962;9.614;2022-12-07T20:12:28;100813.16;;;0.63
72675;BMP280;60752;53.962;9.614;2022-12-07T20:17:28;100808.78;;;0.63
72675;BMP280;60752;53.962;9.614;2022-12-07T20:22:28;100812.38;;;0.69
72675;BMP280;60752;53.962;9.614;2022-12-07T20:27:30;100799.50;;;0.75
72675;BMP280;60752;53.962;9.614;2022-12-07T20:32:31;100794.56;;;0.80
72675;BMP280;60752;53.962;9.614;2022-12-07T20:37:31;100789.00;;;0.83
72675;BMP280;60752;53.962;9.614;2022-12-07T20:42:33;100789.00;;;0.83
72675;BMP280;60752;53.962;9.614;2022-12-07T20:47:34;100785.03;;;0.87
72675;BMP280;60752;53.962;9.614;2022-12-07T20:52:35;100769.38;;;0.89
72675;BMP280;60752;53.962;9.614;2022-12-07T20:57:37;100778.28;;;0.93
72675;BMP280;60752;53.962;9.614;2022-12-07T21:02:39;100774.50;;;0.96
72675;BMP280;60752;53.962;9.614;2022-12-07T21:07:39;100771.94;;;0.96
72675;BMP280;60752;53.962;9.614;2022-12-07T21:12:41;100756.50;;;0.96
72675;BMP280;60752;53.962;9.614;2022-12-07T21:17:42;100763.22;;;0.97
72675;BMP280;60752;53.962;9.614;2022-12-07T21:22:42;100758.88;;;0.97
72675;BMP280;60752;53.962;9.614;2022-12-07T21:27:44;100749.56;;;0.96
72675;BMP280;60752;53.962;9.614;2022-12-07T21:32:44;100739.66;;;0.93
72675;BMP280;60752;53.962;9.614;2022-12-07T21:37:45;100736.69;;;0.89
72675;BMP280;60752;53.962;9.614;2022-12-07T21:42:46;100733.31;;;0.89
72675;BMP280;60752;53.962;9.614;2022-12-07T21:47:47;100730.75;;;0.89
72675;BMP280;60752;53.962;9.614;2022-12-07T21:52:47;100720.66;;;0.87
72675;BMP280;60752;53.962;9.614;2022-12-07T21:57:51;100708.00;;;0.86
72675;BMP280;60752;53.962;9.614;2022-12-07T22:02:52;100693.16;;;0.81
72675;BMP280;60752;53.962;9.614;2022-12-07T22:07:52;100695.72;;;0.81
72675;BMP280;60752;53.962;9.614;2022-12-07T22:12:55;100693.34;;;0.80
72675;BMP280;60752;53.962;9.614;2022-12-07T22:17:55;100682.25;;;0.79
72675;BMP280;60752;53.962;9.614;2022-12-07T22:22:56;100674.28;;;0.87
72675;BMP280;60752;53.962;9.614;2022-12-07T22:27:57;100666.78;;;0.93
72675;BMP280;60752;53.962;9.614;2022-12-07T22:32:58;100662.19;;;0.95
72675;BMP280;60752;53.962;9.614;2022-12-07T22:38:00;100648.31;;;0.96
72675;BMP280;60752;53.962;9.614;2022-12-07T22:43:02;100645.75;;;0.96
72675;BMP280;60752;53.962;9.614;2022-12-07T22:48:02;100638.44;;;0.99
72675;BMP280;60752;53.962;9.614;2022-12-07T22:53:05;100635.63;;;1.01
72675;BMP280;60752;53.962;9.614;2022-12-07T22:58:07;100619.59;;;0.99
72675;BMP280;60752;53.962;9.614;2022-12-07T23:03:07;100605.94;;;0.98
72675;BMP280;60752;53.962;9.614;2022-12-07T23:08:07;100598.22;;;0.98
72675;BMP280;60752;53.962;9.614;2022-12-07T23:13:10;100598.22;;;0.98
72675;BMP280;60752;53.962;9.614;2022-12-07T23:18:11;100599.78;;;0.99
72675;BMP280;60752;53.962;9.614;2022-12-07T23:23:11;100590.50;;;0.98
72675;BMP280;60752;53.962;9.614;2022-12-07T23:28:16;100584.34;;;0.99
72675;BMP280;60752;53.962;9.614;2022-12-07T23:33:16;100578.78;;;1.02
72675;BMP280;60752;53.962;9.614;2022-12-07T23:38:17;100573.44;;;1.04
72675;BMP280;60752;53.962;9.614;2022-12-07T23:43:18;100562.13;;;1.05
72675;BMP280;60752;53.962;9.614;2022-12-07T23:48:19;100558.78;;;1.04
72675;BMP280;60752;53.962;9.614;2022-12-07T23:53:19;100550.25;;;1.04
72675;BMP280;60752;53.962;9.614;2022-12-07T23:58:21;100553.63;;;1.04
